sensor_id;sensor_type;location;lat;lon;timestamp;P1;durP1;ratioP1;P2;durP2;ratioP2
11037;SDS011;5572;49.540;11.932;2023-05-23T00:00:35;447.27;;;201.57;;
11037;SDS011;5572;49.540;11.932;2023-05-23T00:03:02;576.30;;;254.97;;
11037;SDS011;5572;49.540;11.932;2023-05-23T00:05:28;445.77;;;201.90;;
11037;SDS011;5572;49.540;11.932;2023-05-23T00:07:55;445.77;;;203.40;;
11037;SDS011;5572;49.540;11.932;2023-05-23T00:10:21;579.73;;;273.03;;
11037;SDS011;5572;49.540;11.932;2023-05-23T00:12:48;567.67;;;238.63;;
11037;SDS011;5572;49.540;11.932;2023-05-23T00:15:16;568.10;;;244.23;;
11037;SDS011;5572;49.540;11.932;2023-05-23T00:17:42;568.17;;;235.30;;
11037;SDS011;5572;49.540;11.932;2023-05-23T00:20:09;570.47;;;245.17;;
11037;SDS011;5572;49.540;11.932;2023-05-23T00:22:37;565.30;;;234.50;;
11037;SDS011;5572;49.540;11.932;2023-05-23T00:25:07;444.27;;;192.70;;
11037;SDS011;5572;49.540;11.932;2023-05-23T00:27:33;566.10;;;238.63;;
11037;SDS011;5572;49.540;11.932;2023-05-23T00:30:00;563.37;;;230.93;;
11037;SDS011;5572;49.540;11.932;2023-05-23T00:32:28;455.63;;;204.73;;
11037;SDS011;5572;49.540;11.932;2023-05-23T00:34:54;441.90;;;194.70;;
11037;SDS011;5572;49.540;11.932;2023-05-23T00:37:21;446.40;;;194.43;;
11037;SDS011;5572;49.540;11.932;2023-05-23T00:39:47;444.73;;;194.70;;
11037;SDS011;5572;49.540;11.932;2023-05-23T00:42:14;563.43;;;234.77;;
11037;SDS011;5572;49.540;11.932;2023-05-23T00:44:40;569.40;;;241.90;;
11037;SDS011;5572;49.540;11.932;2023-05-23T00:47:07;444.10;;;187.97;;
11037;SDS011;5572;49.540;11.932;2023-05-23T00:49:36;441.53;;;187.43;;
11037;SDS011;5572;49.540;11.932;2023-05-23T00:52:03;438.00;;;176.97;;
11037;SDS011;5572;49.540;11.932;2023-05-23T00:54:30;443.63;;;192.87;;
11037;SDS011;5572;49.540;11.932;2023-05-23T00:56:57;565.43;;;230.70;;
11037;SDS011;5572;49.540;11.932;2023-05-23T00:59:25;563.60;;;225.10;;
11037;SDS011;5572;49.540;11.932;2023-05-23T01:01:52;562.27;;;226.03;;
11037;SDS011;5572;49.540;11.932;2023-05-23T01:04:20;562.70;;;218.43;;
11037;SDS011;5572;49.540;11.932;2023-05-23T01:06:52;441.07;;;192.00;;
11037;SDS011;5572;49.540;11.932;2023-05-23T01:09:19;565.70;;;233.93;;
11037;SDS011;5572;49.540;11.932;2023-05-23T01:11:49;557.63;;;221.67;;
11037;SDS011;5572;49.540;11.932;2023-05-23T01:14:27;563.50;;;226.27;;
11037;SDS011;5572;49.540;11.932;2023-05-23T01:16:59;442.87;;;191.27;;
11037;SDS011;5572;49.540;11.932;2023-05-23T01:22:30;560.57;;;228.60;;
11037;SDS011;5572;49.540;11.932;2023-05-23T01:25:06;561.13;;;222.80;;
11037;SDS011;5572;49.540;11.932;2023-05-23T01:27:49;563.97;;;228.73;;
11037;SDS011;5572;49.540;11.932;2023-05-23T01:30:19;439.87;;;177.37;;
11037;SDS011;5572;49.540;11.932;2023-05-23T01:32:46;561.60;;;219.27;;
11037;SDS011;5572;49.540;11.932;2023-05-23T01:35:16;559.30;;;222.20;;
11037;SDS011;5572;49.540;11.932;2023-05-23T01:37:47;565.93;;;237.27;;
11037;SDS011;5572;49.540;11.932;2023-05-23T01:40:13;433.47;;;171.10;;
11037;SDS011;5572;49.540;11.932;2023-05-23T01:42:40;560.20;;;221.93;;
11037;SDS011;5572;49.540;11.932;2023-05-23T01:45:09;563.33;;;225.77;;
11037;SDS011;5572;49.540;11.932;2023-05-23T01:47:36;440.10;;;184.13;;
11037;SDS011;5572;49.540;11.932;2023-05-23T01:50:05;561.40;;;225.90;;
11037;SDS011;5572;49.540;11.932;2023-05-23T01:52:33;439.97;;;182.07;;
11037;SDS011;5572;49.540;11.932;2023-05-23T01:55:00;441.90;;;177.73;;
11037;SDS011;5572;49.540;11.932;2023-05-23T01:57:34;442.70;;;174.87;;
11037;SDS011;5572;49.540;11.932;2023-05-23T02:00:01;561.07;;;208.90;;
11037;SDS011;5572;49.540;11.932;2023-05-23T02:02:31;564.00;;;219.00;;
11037;SDS011;5572;49.540;11.932;2023-05-23T02:04:58;561.97;;;215.73;;
11037;SDS011;5572;49.540;11.932;2023-05-23T02:07:24;446.87;;;192.43;;
11037;SDS011;5572;49.540;11.932;2023-05-23T02:09:51;430.93;;;162.70;;
11037;SDS011;5572;49.540;11.932;2023-05-23T02:12:17;438.13;;;173.40;;
11037;SDS011;5572;49.540;11.932;2023-05-23T02:14:44;436.17;;;173.73;;
11037;SDS011;5572;49.540;11.932;2023-05-23T02:17:11;431.83;;;165.30;;
11037;SDS011;5572;49.540;11.932;2023-05-23T02:19:40;443.30;;;180.67;;
11037;SDS011;5572;49.540;11.932;2023-05-23T02:22:07;441.87;;;171.43;;
11037;SDS011;5572;49.540;11.932;2023-05-23T02:24:33;438.90;;;163.67;;
11037;SDS011;5572;49.540;11.932;2023-05-23T02:27:00;551.63;;;199.70;;
11037;SDS011;5572;49.540;11.932;2023-05-23T02:29:27;433.70;;;166.63;;
11037;SDS011;5572;49.540;11.932;2023-05-23T02:31:53;433.50;;;163.07;;
11037;SDS011;5572;49.540;11.932;2023-05-23T02:34:20;557.77;;;214.83;;
11037;SDS011;5572;49.540;11.932;2023-05-23T02:36:48;433.30;;;161.27;;
11037;SDS011;5572;49.540;11.932;2023-05-23T02:39:15;440.83;;;176.40;;
11037;SDS011;5572;49.540;11.932;2023-05-23T02:41:42;446.27;;;171.53;;
11037;SDS011;5572;49.540;11.932;2023-05-23T02:44:08;430.97;;;164.77;;
11037;SDS011;5572;49.540;11.932;2023-05-23T02:46:35;434.10;;;172.47;;
11037;SDS011;5572;49.540;11.932;2023-05-23T02:49:01;438.43;;;181.17;;
11037;SDS011;5572;49.540;11.932;2023-05-23T02:51:28;553.60;;;201.87;;
11037;SDS011;5572;49.540;11.932;2023-05-23T02:53:57;437.33;;;178.17;;
11037;SDS011;5572;49.540;11.932;2023-05-23T02:56:24;554.00;;;215.40;;
11037;SDS011;5572;49.540;11.932;2023-05-23T02:58:50;552.87;;;206.73;;
11037;SDS011;5572;49.540;11.932;2023-05-23T03:01:17;431.93;;;166.97;;
11037;SDS011;5572;49.540;11.932;2023-05-23T03:03:44;431.40;;;167.17;;
11037;SDS011;5572;49.540;11.932;2023-05-23T03:06:11;437.03;;;178.13;;
11037;SDS011;5572;49.540;11.932;2023-05-23T03:08:38;559.43;;;216.57;;
11037;SDS011;5572;49.540;11.932;2023-05-23T03:11:06;436.73;;;177.77;;
11037;SDS011;5572;49.540;11.932;2023-05-23T03:13:33;553.00;;;214.63;;
11037;SDS011;5572;49.540;11.932;2023-05-23T03:15:59;560.33;;;211.77;;
11037;SDS011;5572;49.540;11.932;2023-05-23T03:18:26;435.73;;;173.40;;
11037;SDS011;5572;49.540;11.932;2023-05-23T03:23:20;557.93;;;216.63;;
11037;SDS011;5572;49.540;11.932;2023-05-23T03:25:46;436.47;;;171.60;;
11037;SDS011;5572;49.540;11.932;2023-05-23T03:28:14;434.40;;;175.27;;
11037;SDS011;5572;49.540;11.932;2023-05-23T03:30:40;434.83;;;167.50;;
11037;SDS011;5572;49.540;11.932;2023-05-23T03:33:07;436.30;;;176.17;;
11037;SDS011;5572;49.540;11.932;2023-05-23T03:35:33;432.50;;;163.53;;
11037;SDS011;5572;49.540;11.932;2023-05-23T03:38:00;433.90;;;171.00;;
11037;SDS011;5572;49.540;11.932;2023-05-23T03:40:27;430.57;;;160.63;;
11037;SDS011;5572;49.540;11.932;2023-05-23T03:43:03;444.93;;;174.70;;
11037;SDS011;5572;49.540;11.932;2023-05-23T03:45:32;437.30;;;174.13;;
11037;SDS011;5572;49.540;11.932;2023-05-23T03:47:59;554.67;;;211.97;;
11037;SDS011;5572;49.540;11.932;2023-05-23T03:50:26;560.30;;;209.53;;
11037;SDS011;5572;49.540;11.932;2023-05-23T03:52:52;440.70;;;185.93;;
11037;SDS011;5572;49.540;11.932;2023-05-23T03:55:19;432.80;;;165.57;;
11037;SDS011;5572;49.540;11.932;2023-05-23T03:57:48;556.47;;;211.10;;
11037;SDS011;5572;49.540;11.932;2023-05-23T04:00:15;561.63;;;213.20;;
11037;SDS011;5572;49.540;11.932;2023-05-23T04:02:44;438.20;;;180.10;;
11037;SDS011;5572;49.540;11.932;2023-05-23T04:05:11;441.47;;;179.07;;
11037;SDS011;5572;49.540;11.932;2023-05-23T04:07:37;562.37;;;216.87;;
11037;SDS011;5572;49.540;11.932;2023-05-23T04:10:06;557.33;;;216.60;;
11037;SDS011;5572;49.540;11.932;2023-05-23T04:12:33;433.03;;;175.17;;
11037;SDS011;5572;49.540;11.932;2023-05-23T04:15:00;435.37;;;176.77;;
11037;SDS011;5572;49.540;11.932;2023-05-23T04:17:26;570.53;;;243.70;;
11037;SDS011;5572;49.540;11.932;2023-05-23T04:19:56;435.57;;;175.83;;
11037;SDS011;5572;49.540;11.932;2023-05-23T04:22:22;560.77;;;225.83;;
11037;SDS011;5572;49.540;11.932;2023-05-23T04:24:49;564.70;;;236.90;;
11037;SDS011;5572;49.540;11.932;2023-05-23T04:27:15;562.67;;;232.47;;
11037;SDS011;5572;49.540;11.932;2023-05-23T04:29:42;444.73;;;201.60;;
11037;SDS011;5572;49.540;11.932;2023-05-23T04:32:10;568.83;;;239.30;;
11037;SDS011;5572;49.540;11.932;2023-05-23T04:34:38;440.33;;;194.67;;
11037;SDS011;5572;49.540;11.932;2023-05-23T04:37:07;445.67;;;201.53;;
11037;SDS011;5572;49.540;11.932;2023-05-23T04:39:34;440.77;;;201.33;;
11037;SDS011;5572;49.540;11.932;2023-05-23T04:42:00;443.73;;;206.53;;
11037;SDS011;5572;49.540;11.932;2023-05-23T04:44:27;452.80;;;218.10;;
11037;SDS011;5572;49.540;11.932;2023-05-23T04:46:54;452.30;;;223.03;;
11037;SDS011;5572;49.540;11.932;2023-05-23T04:49:21;578.37;;;269.50;;
11037;SDS011;5572;49.540;11.932;2023-05-23T04:51:48;576.07;;;265.00;;
11037;SDS011;5572;49.540;11.932;2023-05-23T04:54:16;572.73;;;262.33;;
11037;SDS011;5572;49.540;11.932;2023-05-23T04:56:43;451.97;;;224.33;;
11037;SDS011;5572;49.540;11.932;2023-05-23T04:59:09;453.07;;;232.20;;
11037;SDS011;5572;49.540;11.932;2023-05-23T05:01:37;449.87;;;231.67;;
11037;SDS011;5572;49.540;11.932;2023-05-23T05:04:04;574.97;;;279.57;;
11037;SDS011;5572;49.540;11.932;2023-05-23T05:06:31;452.60;;;234.83;;
11037;SDS011;5572;49.540;11.932;2023-05-23T05:08:57;453.47;;;237.77;;
11037;SDS011;5572;49.540;11.932;2023-05-23T05:11:25;452.53;;;233.77;;
11037;SDS011;5572;49.540;11.932;2023-05-23T05:13:52;452.57;;;234.33;;
11037;SDS011;5572;49.540;11.932;2023-05-23T05:16:19;467.63;;;258.83;;
11037;SDS011;5572;49.540;11.932;2023-05-23T05:18:45;458.00;;;250.47;;
11037;SDS011;5572;49.540;11.932;2023-05-23T05:21:12;451.70;;;244.63;;
11037;SDS011;5572;49.540;11.932;2023-05-23T05:23:47;450.73;;;241.40;;
11037;SDS011;5572;49.540;11.932;2023-05-23T05:26:13;456.13;;;246.83;;
11037;SDS011;5572;49.540;11.932;2023-05-23T05:28:42;584.20;;;306.67;;
11037;SDS011;5572;49.540;11.932;2023-05-23T05:31:08;455.90;;;245.70;;
11037;SDS011;5572;49.540;11.932;2023-05-23T05:33:39;451.03;;;236.37;;
11037;SDS011;5572;49.540;11.932;2023-05-23T05:36:05;588.23;;;314.97;;
11037;SDS011;5572;49.540;11.932;2023-05-23T05:38:32;455.40;;;255.47;;
11037;SDS011;5572;49.540;11.932;2023-05-23T05:40:59;452.40;;;252.03;;
11037;SDS011;5572;49.540;11.932;2023-05-23T05:43:25;456.10;;;253.63;;
11037;SDS011;5572;49.540;11.932;2023-05-23T05:45:58;449.20;;;242.33;;
11037;SDS011;5572;49.540;11.932;2023-05-23T05:48:24;455.37;;;255.40;;
11037;SDS011;5572;49.540;11.932;2023-05-23T05:50:53;464.73;;;270.17;;
11037;SDS011;5572;49.540;11.932;2023-05-23T05:53:19;462.93;;;283.13;;
11037;SDS011;5572;49.540;11.932;2023-05-23T05:55:46;584.10;;;334.13;;
11037;SDS011;5572;49.540;11.932;2023-05-23T05:58:14;460.03;;;287.77;;
11037;SDS011;5572;49.540;11.932;2023-05-23T06:00:41;464.43;;;300.67;;
11037;SDS011;5572;49.540;11.932;2023-05-23T06:03:11;462.93;;;298.77;;
11037;SDS011;5572;49.540;11.932;2023-05-23T06:05:38;468.87;;;311.43;;
11037;SDS011;5572;49.540;11.932;2023-05-23T06:08:05;468.53;;;311.40;;
11037;SDS011;5572;49.540;11.932;2023-05-23T06:10:35;460.37;;;294.87;;
11037;SDS011;5572;49.540;11.932;2023-05-23T06:13:04;593.50;;;375.60;;
11037;SDS011;5572;49.540;11.932;2023-05-23T06:15:30;468.03;;;315.03;;
11037;SDS011;5572;49.540;11.932;2023-05-23T06:17:59;472.13;;;334.23;;
11037;SDS011;5572;49.540;11.932;2023-05-23T06:20:26;595.77;;;384.13;;
11037;SDS011;5572;49.540;11.932;2023-05-23T06:22:53;601.30;;;376.27;;
11037;SDS011;5572;49.540;11.932;2023-05-23T06:25:20;469.27;;;317.50;;
11037;SDS011;5572;49.540;11.932;2023-05-23T06:27:46;468.10;;;311.33;;
11037;SDS011;5572;49.540;11.932;2023-05-23T06:30:14;600.03;;;383.83;;
11037;SDS011;5572;49.540;11.932;2023-05-23T06:32:41;467.73;;;309.83;;
11037;SDS011;5572;49.540;11.932;2023-05-23T06:35:08;592.40;;;360.33;;
11037;SDS011;5572;49.540;11.932;2023-05-23T06:37:36;475.03;;;309.67;;
11037;SDS011;5572;49.540;11.932;2023-05-23T06:40:04;466.83;;;305.43;;
11037;SDS011;5572;49.540;11.932;2023-05-23T06:42:31;464.87;;;301.90;;
11037;SDS011;5572;49.540;11.932;2023-05-23T06:44:57;470.13;;;300.00;;
11037;SDS011;5572;49.540;11.932;2023-05-23T06:47:24;468.00;;;310.77;;
11037;SDS011;5572;49.540;11.932;2023-05-23T06:49:50;465.97;;;301.23;;
11037;SDS011;5572;49.540;11.932;2023-05-23T06:52:18;473.00;;;306.30;;
11037;SDS011;5572;49.540;11.932;2023-05-23T06:54:45;597.73;;;366.73;;
11037;SDS011;5572;49.540;11.932;2023-05-23T06:57:12;475.93;;;320.47;;
11037;SDS011;5572;49.540;11.932;2023-05-23T06:59:44;464.20;;;297.60;;
11037;SDS011;5572;49.540;11.932;2023-05-23T07:02:11;592.93;;;368.00;;
11037;SDS011;5572;49.540;11.932;2023-05-23T07:04:37;466.00;;;310.47;;
11037;SDS011;5572;49.540;11.932;2023-05-23T07:07:04;474.00;;;325.73;;
11037;SDS011;5572;49.540;11.932;2023-05-23T07:09:31;605.10;;;403.70;;
11037;SDS011;5572;49.540;11.932;2023-05-23T07:11:59;471.20;;;328.20;;
11037;SDS011;5572;49.540;11.932;2023-05-23T07:14:25;469.80;;;332.87;;
11037;SDS011;5572;49.540;11.932;2023-05-23T07:16:52;470.53;;;333.07;;
11037;SDS011;5572;49.540;11.932;2023-05-23T07:19:18;485.50;;;344.30;;
11037;SDS011;5572;49.540;11.932;2023-05-23T07:21:45;630.87;;;417.87;;
11037;SDS011;5572;49.540;11.932;2023-05-23T07:24:11;478.80;;;345.13;;
11037;SDS011;5572;49.540;11.932;2023-05-23T07:26:38;478.77;;;354.90;;
11037;SDS011;5572;49.540;11.932;2023-05-23T07:29:06;478.57;;;366.60;;
11037;SDS011;5572;49.540;11.932;2023-05-23T07:31:32;481.27;;;371.30;;
11037;SDS011;5572;49.540;11.932;2023-05-23T07:33:59;473.27;;;354.77;;
11037;SDS011;5572;49.540;11.932;2023-05-23T07:36:25;477.97;;;359.70;;
11037;SDS011;5572;49.540;11.932;2023-05-23T07:38:53;482.27;;;366.33;;
11037;SDS011;5572;49.540;11.932;2023-05-23T07:41:20;610.97;;;442.07;;
11037;SDS011;5572;49.540;11.932;2023-05-23T07:43:46;482.73;;;367.37;;
11037;SDS011;5572;49.540;11.932;2023-05-23T07:46:15;482.37;;;357.63;;
11037;SDS011;5572;49.540;11.932;2023-05-23T07:48:41;481.77;;;354.00;;
11037;SDS011;5572;49.540;11.932;2023-05-23T07:51:08;473.10;;;335.47;;
11037;SDS011;5572;49.540;11.932;2023-05-23T07:53:34;477.90;;;307.37;;
11037;SDS011;5572;49.540;11.932;2023-05-23T07:56:03;471.67;;;329.90;;
11037;SDS011;5572;49.540;11.932;2023-05-23T07:58:30;478.53;;;332.27;;
11037;SDS011;5572;49.540;11.932;2023-05-23T08:00:57;469.90;;;331.13;;
11037;SDS011;5572;49.540;11.932;2023-05-23T08:03:25;610.07;;;420.33;;
11037;SDS011;5572;49.540;11.932;2023-05-23T08:05:51;476.77;;;351.40;;
11037;SDS011;5572;49.540;11.932;2023-05-23T08:08:18;474.67;;;341.07;;
11037;SDS011;5572;49.540;11.932;2023-05-23T08:10:44;655.83;;;452.93;;
11037;SDS011;5572;49.540;11.932;2023-05-23T08:13:11;606.67;;;423.67;;
11037;SDS011;5572;49.540;11.932;2023-05-23T08:15:37;504.13;;;367.07;;
11037;SDS011;5572;49.540;11.932;2023-05-23T08:18:04;481.33;;;369.83;;
11037;SDS011;5572;49.540;11.932;2023-05-23T08:20:32;609.10;;;431.93;;
11037;SDS011;5572;49.540;11.932;2023-05-23T08:22:59;479.50;;;374.57;;
11037;SDS011;5572;49.540;11.932;2023-05-23T08:25:26;476.37;;;368.33;;
11037;SDS011;5572;49.540;11.932;2023-05-23T08:27:56;477.67;;;366.00;;
11037;SDS011;5572;49.540;11.932;2023-05-23T08:30:23;612.23;;;444.97;;
11037;SDS011;5572;49.540;11.932;2023-05-23T08:32:50;605.37;;;442.33;;
11037;SDS011;5572;49.540;11.932;2023-05-23T08:35:17;604.37;;;429.23;;
11037;SDS011;5572;49.540;11.932;2023-05-23T08:37:45;475.57;;;359.23;;
11037;SDS011;5572;49.540;11.932;2023-05-23T08:40:12;474.33;;;352.60;;
11037;SDS011;5572;49.540;11.932;2023-05-23T08:42:43;481.37;;;358.47;;
11037;SDS011;5572;49.540;11.932;2023-05-23T08:45:10;596.50;;;401.93;;
11037;SDS011;5572;49.540;11.932;2023-05-23T08:47:37;473.43;;;349.70;;
11037;SDS011;5572;49.540;11.932;2023-05-23T08:50:06;470.40;;;335.40;;
11037;SDS011;5572;49.540;11.932;2023-05-23T08:52:35;472.93;;;341.83;;
11037;SDS011;5572;49.540;11.932;2023-05-23T08:55:18;599.40;;;409.40;;
11037;SDS011;5572;49.540;11.932;2023-05-23T08:57:45;472.03;;;346.53;;
11037;SDS011;5572;49.540;11.932;2023-05-23T09:00:12;471.27;;;356.90;;
11037;SDS011;5572;49.540;11.932;2023-05-23T09:02:41;474.30;;;359.37;;
11037;SDS011;5572;49.540;11.932;2023-05-23T09:05:09;472.73;;;360.00;;
11037;SDS011;5572;49.540;11.932;2023-05-23T09:07:36;488.00;;;387.07;;
11037;SDS011;5572;49.540;11.932;2023-05-23T09:10:03;613.70;;;449.90;;
11037;SDS011;5572;49.540;11.932;2023-05-23T09:12:32;485.30;;;385.00;;
11037;SDS011;5572;49.540;11.932;2023-05-23T09:15:01;612.37;;;451.70;;
11037;SDS011;5572;49.540;11.932;2023-05-23T09:17:27;614.73;;;446.03;;
11037;SDS011;5572;49.540;11.932;2023-05-23T09:19:55;482.03;;;351.07;;
11037;SDS011;5572;49.540;11.932;2023-05-23T09:22:22;484.53;;;351.97;;
11037;SDS011;5572;49.540;11.932;2023-05-23T09:24:51;473.33;;;338.13;;
11037;SDS011;5572;49.540;11.932;2023-05-23T09:27:17;602.03;;;393.40;;
11037;SDS011;5572;49.540;11.932;2023-05-23T09:29:45;472.30;;;329.43;;
11037;SDS011;5572;49.540;11.932;2023-05-23T09:32:12;479.10;;;347.43;;
11037;SDS011;5572;49.540;11.932;2023-05-23T09:34:40;604.23;;;409.60;;
11037;SDS011;5572;49.540;11.932;2023-05-23T09:37:07;476.53;;;353.50;;
11037;SDS011;5572;49.540;11.932;2023-05-23T09:39:37;471.70;;;345.67;;
11037;SDS011;5572;49.540;11.932;2023-05-23T09:42:04;469.90;;;346.63;;
11037;SDS011;5572;49.540;11.932;2023-05-23T09:44:31;470.13;;;343.90;;
11037;SDS011;5572;49.540;11.932;2023-05-23T09:47:07;470.53;;;349.97;;
11037;SDS011;5572;49.540;11.932;2023-05-23T09:49:34;474.03;;;361.47;;
11037;SDS011;5572;49.540;11.932;2023-05-23T09:52:00;478.73;;;379.33;;
11037;SDS011;5572;49.540;11.932;2023-05-23T09:54:27;476.37;;;379.50;;
11037;SDS011;5572;49.540;11.932;2023-05-23T09:56:53;486.50;;;416.73;;
11037;SDS011;5572;49.540;11.932;2023-05-23T09:59:21;486.20;;;422.27;;
11037;SDS011;5572;49.540;11.932;2023-05-23T10:01:50;473.93;;;367.47;;
11037;SDS011;5572;49.540;11.932;2023-05-23T10:04:18;460.13;;;341.73;;
11037;SDS011;5572;49.540;11.932;2023-05-23T10:06:48;463.90;;;349.63;;
11037;SDS011;5572;49.540;11.932;2023-05-23T10:09:19;460.63;;;340.20;;
11037;SDS011;5572;49.540;11.932;2023-05-23T10:14:53;458.37;;;341.20;;
11037;SDS011;5572;49.540;11.932;2023-05-23T10:17:24;476.03;;;386.37;;
11037;SDS011;5572;49.540;11.932;2023-05-23T10:20:00;469.37;;;374.10;;
11037;SDS011;5572;49.540;11.932;2023-05-23T10:22:32;479.67;;;388.27;;
11037;SDS011;5572;49.540;11.932;2023-05-23T10:25:00;476.03;;;379.23;;
11037;SDS011;5572;49.540;11.932;2023-05-23T10:27:28;484.40;;;392.60;;
11037;SDS011;5572;49.540;11.932;2023-05-23T10:29:55;470.77;;;369.50;;
11037;SDS011;5572;49.540;11.932;2023-05-23T10:32:24;481.47;;;382.57;;
11037;SDS011;5572;49.540;11.932;2023-05-23T10:34:53;488.70;;;399.97;;
11037;SDS011;5572;49.540;11.932;2023-05-23T10:37:26;613.07;;;455.33;;
11037;SDS011;5572;49.540;11.932;2023-05-23T10:40:00;476.07;;;388.33;;
11037;SDS011;5572;49.540;11.932;2023-05-23T10:42:34;614.57;;;491.60;;
11037;SDS011;5572;49.540;11.932;2023-05-23T10:45:14;491.73;;;433.43;;
11037;SDS011;5572;49.540;11.932;2023-05-23T10:47:42;504.07;;;449.43;;
11037;SDS011;5572;49.540;11.932;2023-05-23T10:50:11;623.13;;;523.57;;
11037;SDS011;5572;49.540;11.932;2023-05-23T10:52:39;478.90;;;417.67;;
11037;SDS011;5572;49.540;11.932;2023-05-23T10:58:10;483.03;;;423.10;;
11037;SDS011;5572;49.540;11.932;2023-05-23T11:00:38;620.00;;;508.30;;
11037;SDS011;5572;49.540;11.932;2023-05-23T11:03:04;504.20;;;449.27;;
11037;SDS011;5572;49.540;11.932;2023-05-23T11:05:32;491.23;;;432.63;;
11037;SDS011;5572;49.540;11.932;2023-05-23T11:08:07;497.87;;;424.27;;
11037;SDS011;5572;49.540;11.932;2023-05-23T11:10:53;479.27;;;379.33;;
11037;SDS011;5572;49.540;11.932;2023-05-23T11:13:21;473.63;;;374.17;;
11037;SDS011;5572;49.540;11.932;2023-05-23T11:15:48;475.63;;;388.77;;
11037;SDS011;5572;49.540;11.932;2023-05-23T11:18:19;596.53;;;452.27;;
11037;SDS011;5572;49.540;11.932;2023-05-23T11:20:48;478.03;;;396.30;;
11037;SDS011;5572;49.540;11.932;2023-05-23T11:23:18;474.80;;;387.50;;
11037;SDS011;5572;49.540;11.932;2023-05-23T11:25:47;471.77;;;380.30;;
11037;SDS011;5572;49.540;11.932;2023-05-23T11:28:14;472.90;;;370.40;;
11037;SDS011;5572;49.540;11.932;2023-05-23T11:30:41;605.27;;;433.50;;
11037;SDS011;5572;49.540;11.932;2023-05-23T11:33:09;472.90;;;370.23;;
11037;SDS011;5572;49.540;11.932;2023-05-23T11:35:38;470.07;;;359.77;;
11037;SDS011;5572;49.540;11.932;2023-05-23T11:38:05;483.43;;;384.67;;
11037;SDS011;5572;49.540;11.932;2023-05-23T11:40:34;460.63;;;345.60;;
11037;SDS011;5572;49.540;11.932;2023-05-23T11:43:02;466.57;;;350.93;;
11037;SDS011;5572;49.540;11.932;2023-05-23T11:45:30;464.53;;;340.70;;
11037;SDS011;5572;49.540;11.932;2023-05-23T11:47:57;464.50;;;346.40;;
11037;SDS011;5572;49.540;11.932;2023-05-23T11:50:24;590.97;;;403.43;;
11037;SDS011;5572;49.540;11.932;2023-05-23T11:52:51;465.53;;;346.80;;
11037;SDS011;5572;49.540;11.932;2023-05-23T11:55:20;463.70;;;337.70;;
11037;SDS011;5572;49.540;11.932;2023-05-23T11:57:48;465.80;;;349.70;;
11037;SDS011;5572;49.540;11.932;2023-05-23T12:00:16;469.07;;;360.93;;
11037;SDS011;5572;49.540;11.932;2023-05-23T12:02:44;596.33;;;421.87;;
11037;SDS011;5572;49.540;11.932;2023-05-23T12:05:13;465.23;;;357.03;;
11037;SDS011;5572;49.540;11.932;2023-05-23T12:07:40;608.20;;;438.30;;
11037;SDS011;5572;49.540;11.932;2023-05-23T12:10:07;471.50;;;361.07;;
11037;SDS011;5572;49.540;11.932;2023-05-23T12:12:34;462.67;;;344.17;;
11037;SDS011;5572;49.540;11.932;2023-05-23T12:15:02;602.10;;;418.80;;
11037;SDS011;5572;49.540;11.932;2023-05-23T12:17:30;478.20;;;355.30;;
11037;SDS011;5572;49.540;11.932;2023-05-23T12:19:57;462.27;;;343.33;;
11037;SDS011;5572;49.540;11.932;2023-05-23T12:22:23;463.07;;;351.60;;
11037;SDS011;5572;49.540;11.932;2023-05-23T12:24:51;459.73;;;335.40;;
11037;SDS011;5572;49.540;11.932;2023-05-23T12:27:19;589.67;;;407.13;;
11037;SDS011;5572;49.540;11.932;2023-05-23T12:29:54;465.27;;;349.67;;
11037;SDS011;5572;49.540;11.932;2023-05-23T12:32:33;582.73;;;394.27;;
11037;SDS011;5572;49.540;11.932;2023-05-23T12:35:00;455.37;;;336.13;;
11037;SDS011;5572;49.540;11.932;2023-05-23T12:37:26;597.77;;;414.00;;
11037;SDS011;5572;49.540;11.932;2023-05-23T12:39:53;794.42;;;713.47;;
11037;SDS011;5572;49.540;11.932;2023-05-23T12:42:20;592.67;;;397.13;;
11037;SDS011;5572;49.540;11.932;2023-05-23T12:44:49;569.73;;;345.93;;
11037;SDS011;5572;49.540;11.932;2023-05-23T12:47:18;558.43;;;324.30;;
11037;SDS011;5572;49.540;11.932;2023-05-23T12:49:44;437.50;;;278.07;;
11037;SDS011;5572;49.540;11.932;2023-05-23T12:52:12;436.57;;;273.40;;
11037;SDS011;5572;49.540;11.932;2023-05-23T12:54:38;562.60;;;334.03;;
11037;SDS011;5572;49.540;11.932;2023-05-23T12:57:05;437.77;;;286.23;;
11037;SDS011;5572;49.540;11.932;2023-05-23T12:59:31;441.37;;;298.83;;
11037;SDS011;5572;49.540;11.932;2023-05-23T13:01:57;446.43;;;297.07;;
11037;SDS011;5572;49.540;11.932;2023-05-23T13:04:27;558.63;;;334.47;;
11037;SDS011;5572;49.540;11.932;2023-05-23T13:06:53;443.83;;;293.17;;
11037;SDS011;5572;49.540;11.932;2023-05-23T13:09:20;439.93;;;286.67;;
11037;SDS011;5572;49.540;11.932;2023-05-23T13:11:46;561.77;;;331.77;;
11037;SDS011;5572;49.540;11.932;2023-05-23T13:14:13;438.67;;;273.97;;
11037;SDS011;5572;49.540;11.932;2023-05-23T13:16:40;437.37;;;268.33;;
11037;SDS011;5572;49.540;11.932;2023-05-23T13:19:07;557.77;;;312.10;;
11037;SDS011;5572;49.540;11.932;2023-05-23T13:21:35;430.10;;;250.83;;
11037;SDS011;5572;49.540;11.932;2023-05-23T13:24:02;436.03;;;269.87;;
11037;SDS011;5572;49.540;11.932;2023-05-23T13:26:28;434.97;;;258.43;;
11037;SDS011;5572;49.540;11.932;2023-05-23T13:28:55;428.97;;;251.97;;
11037;SDS011;5572;49.540;11.932;2023-05-23T13:31:21;435.53;;;255.90;;
11037;SDS011;5572;49.540;11.932;2023-05-23T13:33:48;553.83;;;312.60;;
11037;SDS011;5572;49.540;11.932;2023-05-23T13:36:14;434.83;;;264.27;;
11037;SDS011;5572;49.540;11.932;2023-05-23T13:38:42;439.87;;;269.57;;
11037;SDS011;5572;49.540;11.932;2023-05-23T13:41:09;445.83;;;297.93;;
11037;SDS011;5572;49.540;11.932;2023-05-23T13:43:35;436.27;;;278.67;;
11037;SDS011;5572;49.540;11.932;2023-05-23T13:46:02;438.73;;;278.87;;
11037;SDS011;5572;49.540;11.932;2023-05-23T13:48:28;560.83;;;335.80;;
11037;SDS011;5572;49.540;11.932;2023-05-23T13:50:55;566.53;;;349.37;;
11037;SDS011;5572;49.540;11.932;2023-05-23T13:53:22;443.77;;;305.60;;
11037;SDS011;5572;49.540;11.932;2023-05-23T13:55:49;441.00;;;298.77;;
11037;SDS011;5572;49.540;11.932;2023-05-23T13:58:16;444.40;;;304.60;;
11037;SDS011;5572;49.540;11.932;2023-05-23T14:00:42;557.33;;;335.80;;
11037;SDS011;5572;49.540;11.932;2023-05-23T14:03:09;441.97;;;293.20;;
11037;SDS011;5572;49.540;11.932;2023-05-23T14:05:36;443.37;;;291.87;;
11037;SDS011;5572;49.540;11.932;2023-05-23T14:08:03;444.07;;;292.47;;
11037;SDS011;5572;49.540;11.932;2023-05-23T14:10:29;453.17;;;292.37;;